createdAt,value
2018-07-24T00:01:07.788Z,15.83
2018-07-24T00:03:34.965Z,14.18
2018-07-24T00:06:02.261Z,14.45
2018-07-24T00:08:29.463Z,14.35
2018-07-24T00:10:56.723Z,13.45
2018-07-24T00:13:23.884Z,14.50
2018-07-24T00:15:51.109Z,14.58
2018-07-24T00:18:18.299Z,14.50
2018-07-24T00:20:45.493Z,13.45
2018-07-24T00:23:12.805Z,14.20
2018-07-24T00:25:39.976Z,13.35
2018-07-24T00:28:07.148Z,14.58
2018-07-24T00:30:34.343Z,13.58
2018-07-24T00:33:01.527Z,13.50
2018-07-24T00:35:28.713Z,15.10
2018-07-24T00:37:55.938Z,15.30
2018-07-24T00:40:23.112Z,15.98
2018-07-24T00:42:50.320Z,15.60
2018-07-24T00:45:17.504Z,15.38
2018-07-24T00:47:44.714Z,14.68
2018-07-24T00:50:11.879Z,15.50
2018-07-24T00:52:39.092Z,15.90
2018-07-24T00:55:06.278Z,15.18
2018-07-24T00:57:33.454Z,16.62
2018-07-24T01:00:00.645Z,14.23
2018-07-24T01:02:27.831Z,15.50
2018-07-24T01:04:55.011Z,16.02
2018-07-24T01:07:22.203Z,14.78
2018-07-24T01:09:49.417Z,15.38
2018-07-24T01:12:16.592Z,14.47
2018-07-24T01:14:43.776Z,14.83
2018-07-24T01:17:10.955Z,16.10
2018-07-24T01:19:38.125Z,14.20
2018-07-24T01:22:05.331Z,14.15
2018-07-24T01:24:32.522Z,16.65
2018-07-24T01:26:59.766Z,14.95
2018-07-24T01:29:26.960Z,15.08
2018-07-24T01:31:54.150Z,13.78
2018-07-24T01:34:21.343Z,15.55
2018-07-24T01:36:48.558Z,15.25
2018-07-24T01:39:15.733Z,14.98
2018-07-24T01:41:42.925Z,13.75
2018-07-24T01:44:10.216Z,14.38
2018-07-24T01:46:38.168Z,15.95
2018-07-24T01:49:05.380Z,15.10
2018-07-24T01:51:32.578Z,15.50
2018-07-24T01:53:59.775Z,14.78
2018-07-24T01:56:26.977Z,15.20
2018-07-24T01:58:54.176Z,15.72
2018-07-24T02:01:21.387Z,15.23
2018-07-24T02:03:48.581Z,16.57
2018-07-24T02:06:15.777Z,16.85
2018-07-24T02:08:42.956Z,16.75
2018-07-24T02:11:10.157Z,15.83
2018-07-24T02:13:37.367Z,16.42
2018-07-24T02:16:04.584Z,16.55
2018-07-24T02:18:31.770Z,18.07
2018-07-24T02:20:58.982Z,16.65
2018-07-24T02:23:26.290Z,15.53
2018-07-24T02:25:53.498Z,15.55
2018-07-24T02:28:20.684Z,16.90
2018-07-24T02:30:47.874Z,15.95
2018-07-24T02:33:15.081Z,16.02
2018-07-24T02:35:42.290Z,16.40
2018-07-24T02:38:09.493Z,16.52
2018-07-24T02:40:36.672Z,16.48
2018-07-24T02:43:03.897Z,17.12
2018-07-24T02:45:31.085Z,16.45
2018-07-24T02:47:58.261Z,16.12
2018-07-24T02:50:25.457Z,16.90
2018-07-24T02:52:52.764Z,16.10
2018-07-24T02:55:19.943Z,16.00
2018-07-24T02:57:47.145Z,16.12
2018-07-24T03:00:14.328Z,17.35
2018-07-24T03:02:41.525Z,17.57
2018-07-24T03:05:08.732Z,15.43
2018-07-24T03:07:35.931Z,15.18
2018-07-24T03:10:03.119Z,17.02
2018-07-24T03:12:30.313Z,17.52
2018-07-24T03:14:57.476Z,17.42
2018-07-24T03:17:24.660Z,16.60
2018-07-24T03:19:51.870Z,16.95
2018-07-24T03:22:19.044Z,16.70
2018-07-24T03:24:46.248Z,18.45
2018-07-24T03:27:13.459Z,16.93
2018-07-24T03:29:40.686Z,17.95
2018-07-24T03:32:07.870Z,18.20
2018-07-24T03:34:35.094Z,17.67
2018-07-24T03:37:02.274Z,17.52
2018-07-24T03:39:29.482Z,19.07
2018-07-24T03:41:56.671Z,19.20
2018-07-24T03:44:23.887Z,19.25
2018-07-24T03:46:51.104Z,17.30
2018-07-24T03:49:18.327Z,17.75
2018-07-24T03:51:45.585Z,17.90
2018-07-24T03:54:12.784Z,18.48
2018-07-24T03:56:39.993Z,17.70
2018-07-24T03:59:07.173Z,18.17
2018-07-24T04:01:34.352Z,17.25
2018-07-24T04:04:01.553Z,18.07
2018-07-24T04:06:28.769Z,16.82
2018-07-24T04:08:55.954Z,17.07
2018-07-24T04:11:23.177Z,17.48
2018-07-24T04:13:50.446Z,18.02
2018-07-24T04:16:17.646Z,18.70
2018-07-24T04:18:47.057Z,17.57
2018-07-24T04:21:14.793Z,18.20
2018-07-24T04:23:42.250Z,18.15
2018-07-24T04:26:09.474Z,17.60
2018-07-24T04:28:36.825Z,20.95
2018-07-24T04:31:04.025Z,21.10
2018-07-24T04:33:31.208Z,17.52
2018-07-24T04:35:58.522Z,18.15
2018-07-24T04:38:25.698Z,18.00
2018-07-24T04:40:52.892Z,18.00
2018-07-24T04:43:20.074Z,19.20
2018-07-24T04:45:47.256Z,18.48
2018-07-24T04:48:14.462Z,18.75
2018-07-24T04:50:41.658Z,19.52
2018-07-24T04:53:09.075Z,17.67
2018-07-24T04:55:36.449Z,18.65
2018-07-24T04:58:03.612Z,17.42
2018-07-24T05:00:30.804Z,17.35
2018-07-24T05:02:58.064Z,16.30
2018-07-24T05:05:26.170Z,15.40
2018-07-24T05:07:53.354Z,16.93
2018-07-24T05:10:20.544Z,16.50
2018-07-24T05:12:47.752Z,17.15
2018-07-24T05:15:14.930Z,15.72
2018-07-24T05:17:42.145Z,17.25
2018-07-24T05:20:09.424Z,15.05
2018-07-24T05:22:36.613Z,16.62
2018-07-24T05:25:03.822Z,16.87
2018-07-24T05:27:31.000Z,17.50
2018-07-24T05:29:58.226Z,16.65
2018-07-24T05:32:25.436Z,18.32
2018-07-24T05:34:52.625Z,18.02
2018-07-24T05:37:19.821Z,19.90
2018-07-24T05:39:47.142Z,18.10
2018-07-24T05:42:14.345Z,18.17
2018-07-24T05:44:41.508Z,18.00
2018-07-24T05:47:08.698Z,17.30
2018-07-24T05:49:35.884Z,16.85
2018-07-24T05:52:03.062Z,16.73
2018-07-24T05:54:30.293Z,19.17
2018-07-24T05:56:57.516Z,17.60
2018-07-24T05:59:24.693Z,17.17
2018-07-24T06:01:52.260Z,17.10
2018-07-24T06:04:19.507Z,17.12
2018-07-24T06:06:46.720Z,17.40
2018-07-24T06:09:13.915Z,16.70
2018-07-24T06:11:41.097Z,17.07
2018-07-24T06:14:08.262Z,15.72
2018-07-24T06:16:35.485Z,16.85
2018-07-24T06:19:02.669Z,18.37
2018-07-24T06:21:29.857Z,17.07
2018-07-24T06:23:57.072Z,17.95
2018-07-24T06:26:24.289Z,18.23
2018-07-24T06:28:52.072Z,17.87
2018-07-24T06:31:19.298Z,30.12
2018-07-24T06:33:46.495Z,17.98
2018-07-24T06:36:13.694Z,18.95
2018-07-24T06:38:40.960Z,17.25
2018-07-24T06:41:08.177Z,19.80
2018-07-24T06:43:35.370Z,19.20
2018-07-24T06:46:02.586Z,17.48
2018-07-24T06:48:29.818Z,18.15
2018-07-24T06:50:57.008Z,15.88
2018-07-24T06:53:24.248Z,18.17
2018-07-24T06:55:51.443Z,18.02
2018-07-24T06:58:18.645Z,19.35
2018-07-24T07:00:45.849Z,17.95
2018-07-24T07:03:13.045Z,18.92
2018-07-24T07:05:40.227Z,19.48
2018-07-24T07:08:07.453Z,19.07
2018-07-24T07:10:34.665Z,18.27
2018-07-24T07:13:01.920Z,19.55
2018-07-24T07:15:29.113Z,17.23
2018-07-24T07:17:56.301Z,18.80
2018-07-24T07:20:23.556Z,17.60
2018-07-24T07:22:50.754Z,19.65
2018-07-24T07:25:17.961Z,17.50
2018-07-24T07:27:45.147Z,17.15
2018-07-24T07:30:12.336Z,20.88
2018-07-24T07:32:39.561Z,17.55
2018-07-24T07:35:06.746Z,18.25
2018-07-24T07:37:34.260Z,18.07
2018-07-24T07:40:01.453Z,17.35
2018-07-24T07:42:28.661Z,19.90
2018-07-24T07:44:55.896Z,18.95
2018-07-24T07:47:23.213Z,17.85
2018-07-24T07:49:50.409Z,17.80
2018-07-24T07:52:17.605Z,16.85
2018-07-24T07:54:44.837Z,19.80
2018-07-24T07:57:12.023Z,17.80
2018-07-24T07:59:39.239Z,15.38
2018-07-24T08:02:06.445Z,15.90
2018-07-24T08:04:33.670Z,17.55
2018-07-24T08:07:00.898Z,15.20
2018-07-24T08:09:28.097Z,14.40
2018-07-24T08:11:55.280Z,13.18
2018-07-24T08:14:22.477Z,14.60
2018-07-24T08:16:49.680Z,15.90
2018-07-24T08:19:16.886Z,14.60
2018-07-24T08:21:44.096Z,13.65
2018-07-24T08:24:11.429Z,14.70
2018-07-24T08:26:38.639Z,15.38
2018-07-24T08:29:05.867Z,13.62
2018-07-24T08:31:33.081Z,13.22
2018-07-24T08:34:00.280Z,12.63
2018-07-24T08:36:27.489Z,13.15
2018-07-24T08:38:54.730Z,12.78
2018-07-24T08:41:21.917Z,12.40
2018-07-24T08:43:49.164Z,11.45
2018-07-24T08:46:16.364Z,13.00
2018-07-24T08:48:43.548Z,11.18
2018-07-24T08:51:10.753Z,11.13
2018-07-24T08:53:38.178Z,12.03
2018-07-24T08:56:05.148Z,12.00
2018-07-24T08:58:32.382Z,11.57
2018-07-24T09:00:59.651Z,12.83
2018-07-24T09:03:26.928Z,10.80
2018-07-24T09:05:54.104Z,11.85
2018-07-24T09:08:21.264Z,12.30
2018-07-24T09:10:48.444Z,11.97
2018-07-24T09:13:15.662Z,12.35
2018-07-24T09:15:42.843Z,12.20
2018-07-24T09:18:10.061Z,10.60
2018-07-24T09:20:37.280Z,11.17
2018-07-24T09:23:04.658Z,9.93
2018-07-24T09:25:31.865Z,11.43
2018-07-24T09:27:59.164Z,12.17
2018-07-24T09:30:26.362Z,12.23
2018-07-24T09:32:53.584Z,11.57
2018-07-24T09:35:20.782Z,10.50
2018-07-24T09:37:47.974Z,10.50
2018-07-24T09:40:15.182Z,11.23
2018-07-24T09:42:42.388Z,10.50
2018-07-24T09:45:09.569Z,9.90
2018-07-24T09:47:36.777Z,10.10
2018-07-24T09:50:04.537Z,10.17
2018-07-24T09:52:31.720Z,11.30
2018-07-24T09:54:58.906Z,10.63
2018-07-24T09:57:26.117Z,9.47
2018-07-24T09:59:53.306Z,6.60
2018-07-24T10:02:20.473Z,8.13
2018-07-24T10:04:47.659Z,8.17
2018-07-24T10:07:14.832Z,7.83
2018-07-24T10:09:42.021Z,8.00
2018-07-24T10:12:09.670Z,6.80
2018-07-24T10:14:37.041Z,5.70
2018-07-24T10:17:04.244Z,7.10
2018-07-24T10:19:31.452Z,6.33
2018-07-24T10:21:58.796Z,6.33
2018-07-24T10:24:26.035Z,7.40
2018-07-24T10:26:53.184Z,6.80
2018-07-24T10:29:20.718Z,7.40
2018-07-24T10:31:47.918Z,7.70
2018-07-24T10:34:15.101Z,7.53
2018-07-24T10:36:42.330Z,6.77
2018-07-24T10:39:10.826Z,7.80
2018-07-24T10:41:38.252Z,7.10
2018-07-24T10:44:05.439Z,6.23
2018-07-24T10:46:32.624Z,6.77
2018-07-24T10:48:59.815Z,9.50
2018-07-24T10:51:27.009Z,7.93
2018-07-24T10:53:54.199Z,8.13
2018-07-24T10:56:21.405Z,9.00
2018-07-24T10:58:48.596Z,8.43
2018-07-24T11:01:15.772Z,8.37
2018-07-24T11:03:42.997Z,7.10
2018-07-24T11:06:10.194Z,7.33
2018-07-24T11:08:37.365Z,7.17
2018-07-24T11:11:05.547Z,7.20
2018-07-24T11:13:32.746Z,7.53
2018-07-24T11:15:59.921Z,6.40
2018-07-24T11:18:27.394Z,7.33
2018-07-24T11:20:54.602Z,7.27
2018-07-24T11:23:21.889Z,6.83
2018-07-24T11:25:49.051Z,6.57
2018-07-24T11:28:16.294Z,7.30
2018-07-24T11:30:43.441Z,7.23
2018-07-24T11:33:10.795Z,7.10
2018-07-24T11:35:37.998Z,6.97
2018-07-24T11:38:05.261Z,7.87
2018-07-24T11:40:32.482Z,11.30
2018-07-24T11:42:59.669Z,7.50
2018-07-24T11:45:26.878Z,8.43
2018-07-24T11:47:54.054Z,8.57
2018-07-24T11:50:21.212Z,6.73
2018-07-24T11:52:48.391Z,8.10
2018-07-24T11:55:15.676Z,7.50
2018-07-24T11:57:42.869Z,7.50
2018-07-24T12:00:10.055Z,6.63
2018-07-24T12:02:37.263Z,7.10
2018-07-24T12:05:04.450Z,6.83
2018-07-24T12:07:31.619Z,6.90
2018-07-24T12:09:58.847Z,6.97
2018-07-24T12:12:26.052Z,6.00
2018-07-24T12:14:53.366Z,7.20
2018-07-24T12:17:20.534Z,5.43
2018-07-24T12:19:47.741Z,6.33
2018-07-24T12:22:14.941Z,5.80
2018-07-24T12:24:42.145Z,5.90
2018-07-24T12:27:09.411Z,5.33
2018-07-24T12:29:36.645Z,6.30
2018-07-24T12:32:03.853Z,5.60
2018-07-24T12:34:31.033Z,5.50
2018-07-24T12:36:58.229Z,5.70
2018-07-24T12:39:26.352Z,5.87
2018-07-24T12:41:53.550Z,6.00
2018-07-24T12:44:20.746Z,5.93
2018-07-24T12:46:47.947Z,5.37
2018-07-24T12:49:15.135Z,5.50
2018-07-24T12:51:42.324Z,5.30
2018-07-24T12:54:09.545Z,5.47
2018-07-24T12:56:36.716Z,6.20
2018-07-24T12:59:04.863Z,5.80
2018-07-24T13:01:32.058Z,4.07
2018-07-24T13:03:59.245Z,5.10
2018-07-24T13:06:26.460Z,4.90
2018-07-24T13:08:53.797Z,4.53
2018-07-24T13:11:20.986Z,4.30
2018-07-24T13:13:48.184Z,5.13
2018-07-24T13:16:15.409Z,4.23
2018-07-24T13:18:42.610Z,4.70
2018-07-24T13:21:09.814Z,4.70
2018-07-24T13:23:37.035Z,5.20
2018-07-24T13:26:04.411Z,3.97
2018-07-24T13:28:31.697Z,5.20
2018-07-24T13:30:58.946Z,5.10
2018-07-24T13:33:26.125Z,4.60
2018-07-24T13:35:53.327Z,5.27
2018-07-24T13:38:20.603Z,5.13
2018-07-24T13:40:47.804Z,4.00
2018-07-24T13:43:15.000Z,4.13
2018-07-24T13:45:42.382Z,4.03
2018-07-24T13:48:09.722Z,3.63
2018-07-24T13:50:37.086Z,3.70
2018-07-24T13:53:04.341Z,3.70
2018-07-24T13:55:31.545Z,3.87
2018-07-24T13:57:58.724Z,3.17
2018-07-24T14:00:25.949Z,3.20
2018-07-24T14:02:53.177Z,2.60
2018-07-24T14:05:20.440Z,3.27
2018-07-24T14:07:47.640Z,3.63
2018-07-24T14:10:14.829Z,3.80
2018-07-24T14:12:42.124Z,3.00
2018-07-24T14:15:09.333Z,3.10
2018-07-24T14:17:36.521Z,2.80
2018-07-24T14:20:03.753Z,2.80
2018-07-24T14:22:31.012Z,3.53
2018-07-24T14:24:58.218Z,3.10
2018-07-24T14:27:25.412Z,3.33
2018-07-24T14:29:52.618Z,2.60
2018-07-24T14:32:19.819Z,2.57
2018-07-24T14:34:47.012Z,2.70
2018-07-24T14:37:14.226Z,3.00
2018-07-24T14:39:41.414Z,3.57
2018-07-24T14:42:08.625Z,3.30
2018-07-24T14:44:35.833Z,3.20
2018-07-24T14:47:03.034Z,2.97
2018-07-24T14:49:30.218Z,2.73
2018-07-24T14:51:57.443Z,3.13
2018-07-24T14:54:24.705Z,4.60
2018-07-24T14:56:51.909Z,2.70
2018-07-24T14:59:19.149Z,2.70
2018-07-24T15:01:46.356Z,2.70
2018-07-24T15:04:13.557Z,2.67
2018-07-24T15:06:40.755Z,3.10
2018-07-24T15:09:08.825Z,2.53
2018-07-24T15:11:36.024Z,2.83
2018-07-24T15:14:03.283Z,3.40
2018-07-24T15:16:30.493Z,2.50
2018-07-24T15:18:57.689Z,2.77
2018-07-24T15:21:24.914Z,2.73
2018-07-24T15:23:52.114Z,2.70
2018-07-24T15:26:19.301Z,2.80
2018-07-24T15:28:46.569Z,2.33
2018-07-24T15:31:13.757Z,2.63
2018-07-24T15:33:41.884Z,2.07
2018-07-24T15:36:09.096Z,2.40
2018-07-24T15:38:36.286Z,2.40
2018-07-24T15:41:03.502Z,2.30
2018-07-24T15:43:30.749Z,2.30
2018-07-24T15:45:57.965Z,2.23
2018-07-24T15:48:25.144Z,2.13
2018-07-24T15:50:52.356Z,2.37
2018-07-24T15:53:19.542Z,2.10
2018-07-24T15:55:46.773Z,2.90
2018-07-24T15:58:13.977Z,2.80
2018-07-24T16:00:41.161Z,2.57
2018-07-24T16:03:08.362Z,2.77
2018-07-24T16:05:36.040Z,3.00
2018-07-24T16:08:03.511Z,3.17
2018-07-24T16:10:30.725Z,2.57
2018-07-24T16:12:57.946Z,2.27
2018-07-24T16:15:25.209Z,2.43
2018-07-24T16:17:52.354Z,3.20
2018-07-24T16:20:19.616Z,2.60
2018-07-24T16:22:46.812Z,2.47
2018-07-24T16:25:14.001Z,2.57
2018-07-24T16:27:41.204Z,3.13
2018-07-24T16:30:08.434Z,2.83
2018-07-24T16:32:35.624Z,3.20
2018-07-24T16:35:02.841Z,3.47
2018-07-24T16:37:30.032Z,3.83
2018-07-24T16:39:57.212Z,3.83
2018-07-24T16:42:24.413Z,2.90
2018-07-24T16:44:51.619Z,3.60
2018-07-24T16:47:18.793Z,3.60
2018-07-24T16:49:46.005Z,4.47
2018-07-24T16:52:13.192Z,5.43
2018-07-24T16:54:40.379Z,5.93
2018-07-24T16:57:07.586Z,4.20
2018-07-24T16:59:34.778Z,4.40
2018-07-24T17:02:01.962Z,5.27
2018-07-24T17:04:29.169Z,4.80
2018-07-24T17:06:56.485Z,4.90
2018-07-24T17:09:23.679Z,4.73
2018-07-24T17:11:50.877Z,4.83
2018-07-24T17:14:18.044Z,4.90
2018-07-24T17:16:45.807Z,4.27
2018-07-24T17:19:13.001Z,5.60
2018-07-24T17:21:40.181Z,4.20
2018-07-24T17:24:07.365Z,4.80
2018-07-24T17:26:34.588Z,4.53
2018-07-24T17:29:01.769Z,5.07
2018-07-24T17:31:28.958Z,4.80
2018-07-24T17:33:56.160Z,4.80
2018-07-24T17:36:23.342Z,4.53
2018-07-24T17:38:50.531Z,4.60
2018-07-24T17:41:17.733Z,4.83
2018-07-24T17:43:44.913Z,5.10
2018-07-24T17:46:12.094Z,4.80
2018-07-24T17:48:39.269Z,4.60
2018-07-24T17:51:06.437Z,4.83
2018-07-24T17:53:33.623Z,4.77
2018-07-24T17:56:00.824Z,4.60
2018-07-24T17:58:28.002Z,4.40
2018-07-24T18:00:55.174Z,5.20
2018-07-24T18:03:22.386Z,4.10
2018-07-24T18:05:49.591Z,4.93
2018-07-24T18:08:16.757Z,4.87
2018-07-24T18:10:43.950Z,5.33
2018-07-24T18:13:11.152Z,5.73
2018-07-24T18:15:38.423Z,5.33
2018-07-24T18:18:05.540Z,4.70
2018-07-24T18:20:32.709Z,4.90
2018-07-24T18:22:59.876Z,4.60
2018-07-24T18:25:27.067Z,4.80
2018-07-24T18:27:54.301Z,4.90
2018-07-24T18:30:21.413Z,4.93
2018-07-24T18:32:48.598Z,5.80
2018-07-24T18:35:15.785Z,5.70
2018-07-24T18:37:42.956Z,5.50
2018-07-24T18:40:10.470Z,5.70
2018-07-24T18:42:37.641Z,5.73
2018-07-24T18:45:04.846Z,6.10
2018-07-24T18:47:32.049Z,5.80
2018-07-24T18:49:59.867Z,5.83
2018-07-24T18:52:27.045Z,7.20
2018-07-24T18:54:54.251Z,7.03
2018-07-24T18:57:22.176Z,7.57
2018-07-24T18:59:49.368Z,6.83
2018-07-24T19:02:16.561Z,6.90
2018-07-24T19:04:43.761Z,6.53
2018-07-24T19:07:10.955Z,7.77
2018-07-24T19:09:38.150Z,6.93
2018-07-24T19:12:05.328Z,8.10
2018-07-24T19:14:32.510Z,7.40
2018-07-24T19:16:59.702Z,8.13
2018-07-24T19:19:26.987Z,6.97
2018-07-24T19:21:54.177Z,8.80
2018-07-24T19:24:21.457Z,9.57
2018-07-24T19:26:48.631Z,6.80
2018-07-24T19:29:15.839Z,7.90
2018-07-24T19:31:43.010Z,8.57
2018-07-24T19:34:10.188Z,7.80
2018-07-24T19:36:37.348Z,9.43
2018-07-24T19:39:07.148Z,8.50
2018-07-24T19:41:34.326Z,8.17
2018-07-24T19:44:09.023Z,7.60
2018-07-24T19:46:36.193Z,7.40
2018-07-24T19:49:03.650Z,7.80
2018-07-24T19:51:30.877Z,7.40
2018-07-24T19:53:58.059Z,7.67
2018-07-24T19:56:25.230Z,7.70
2018-07-24T19:58:52.466Z,8.07
2018-07-24T20:01:19.632Z,7.87
2018-07-24T20:03:47.150Z,8.40
2018-07-24T20:06:14.342Z,7.50
2018-07-24T20:08:41.510Z,7.33
2018-07-24T20:11:08.767Z,8.30
2018-07-24T20:13:35.961Z,7.30
2018-07-24T20:16:03.169Z,12.50
2018-07-24T20:18:30.361Z,8.00
2018-07-24T20:20:57.564Z,10.50
2018-07-24T20:23:24.859Z,8.37
2018-07-24T20:25:51.939Z,7.15
2018-07-24T20:28:19.269Z,8.93
2018-07-24T20:30:46.470Z,8.75
2018-07-24T20:33:13.640Z,9.18
2018-07-24T20:35:40.881Z,9.28
2018-07-24T20:38:08.062Z,9.75
2018-07-24T20:40:35.257Z,10.65
2018-07-24T20:43:02.477Z,10.65
2018-07-24T20:45:29.686Z,10.25
2018-07-24T20:47:56.901Z,10.18
2018-07-24T20:50:24.099Z,11.70
2018-07-24T20:52:51.305Z,10.85
2018-07-24T20:55:18.515Z,10.63
2018-07-24T20:57:45.775Z,9.15
2018-07-24T21:00:12.980Z,10.88
2018-07-24T21:02:40.184Z,9.90
2018-07-24T21:05:07.389Z,9.63
2018-07-24T21:07:34.586Z,10.90
2018-07-24T21:10:01.769Z,11.25
2018-07-24T21:12:28.972Z,9.45
2018-07-24T21:14:56.163Z,11.05
2018-07-24T21:17:23.366Z,10.68
2018-07-24T21:19:50.558Z,10.75
2018-07-24T21:22:17.880Z,10.05
2018-07-24T21:24:45.094Z,10.32
2018-07-24T21:27:12.311Z,10.90
2018-07-24T21:29:39.489Z,8.33
2018-07-24T21:32:06.710Z,9.78
2018-07-24T21:34:33.952Z,10.25
2018-07-24T21:37:01.118Z,9.90
2018-07-24T21:39:28.305Z,10.75
2018-07-24T21:41:55.761Z,8.85
2018-07-24T21:44:22.961Z,10.32
2018-07-24T21:46:50.144Z,9.55
2018-07-24T21:49:17.384Z,9.83
2018-07-24T21:51:44.557Z,10.00
2018-07-24T21:54:11.756Z,10.48
2018-07-24T21:56:38.964Z,11.28
2018-07-24T21:59:06.200Z,8.90
2018-07-24T22:01:33.386Z,11.65
2018-07-24T22:04:00.557Z,9.95
2018-07-24T22:06:27.738Z,10.10
2018-07-24T22:08:55.002Z,11.15
2018-07-24T22:11:22.141Z,10.43
2018-07-24T22:13:49.396Z,12.45
2018-07-24T22:16:16.595Z,11.05
2018-07-24T22:18:43.807Z,12.58
2018-07-24T22:21:11.010Z,10.55
2018-07-24T22:23:38.285Z,10.68
2018-07-24T22:26:05.583Z,11.30
2018-07-24T22:28:32.784Z,10.65
2018-07-24T22:31:00.018Z,11.22
2018-07-24T22:33:27.209Z,9.75
2018-07-24T22:35:54.391Z,10.90
2018-07-24T22:38:21.681Z,11.12
2018-07-24T22:40:48.876Z,9.60
2018-07-24T22:43:16.092Z,9.13
2018-07-24T22:45:43.682Z,9.00
2018-07-24T22:48:10.893Z,9.78
2018-07-24T22:50:38.081Z,10.75
2018-07-24T22:53:05.385Z,9.63
2018-07-24T22:55:32.588Z,9.13
2018-07-24T22:58:00.000Z,9.60
2018-07-24T23:00:27.184Z,10.20
2018-07-24T23:02:54.376Z,11.40
2018-07-24T23:05:21.565Z,10.53
2018-07-24T23:07:48.746Z,10.35
2018-07-24T23:10:15.952Z,13.93
2018-07-24T23:12:43.201Z,11.83
2018-07-24T23:15:10.394Z,11.48
2018-07-24T23:17:37.597Z,12.47
2018-07-24T23:20:04.794Z,12.85
2018-07-24T23:22:31.984Z,12.25
2018-07-24T23:24:59.277Z,11.63
2018-07-24T23:27:26.495Z,11.80
2018-07-24T23:29:53.712Z,11.30
2018-07-24T23:32:20.982Z,12.23
2018-07-24T23:34:48.170Z,10.43
2018-07-24T23:37:15.377Z,10.55
2018-07-24T23:39:42.684Z,10.58
2018-07-24T23:42:10.161Z,11.28
2018-07-24T23:44:37.340Z,10.60
2018-07-24T23:47:04.535Z,10.40
2018-07-24T23:49:31.734Z,10.05
2018-07-24T23:51:59.027Z,10.85
2018-07-24T23:54:26.242Z,10.90
2018-07-24T23:56:53.463Z,10.40
2018-07-24T23:59:20.685Z,10.53
